createdAt,value
2023-07-31T00:01:53.892Z,59.69
2023-07-31T00:04:20.325Z,59.42
2023-07-31T00:06:46.694Z,59.63
2023-07-31T00:09:13.107Z,59.67
2023-07-31T00:11:39.634Z,59.94
2023-07-31T00:14:06.021Z,59.96
2023-07-31T00:16:32.620Z,60.11
2023-07-31T00:18:59.135Z,60.41
2023-07-31T00:21:25.631Z,60.51
2023-07-31T00:23:52.050Z,60.25
2023-07-31T00:26:18.567Z,60.26
2023-07-31T00:28:45.189Z,60.63
2023-07-31T00:31:11.807Z,60.73
2023-07-31T00:33:39.118Z,60.25
2023-07-31T00:36:05.789Z,60.44
2023-07-31T00:38:32.208Z,60.64
2023-07-31T00:40:58.642Z,60.76
2023-07-31T00:43:25.882Z,60.58
2023-07-31T00:45:52.447Z,61.07
2023-07-31T00:48:18.950Z,60.86
2023-07-31T00:50:45.386Z,61.38
2023-07-31T00:53:11.985Z,61.23
2023-07-31T00:55:38.412Z,61.01
2023-07-31T00:58:04.825Z,61.10
2023-07-31T01:00:31.260Z,61.29
2023-07-31T01:02:58.146Z,61.18
2023-07-31T01:05:37.781Z,60.95
2023-07-31T01:08:13.664Z,60.83
2023-07-31T01:10:46.352Z,59.78
2023-07-31T01:13:13.667Z,60.63
2023-07-31T01:15:40.199Z,60.87
2023-07-31T01:18:06.584Z,61.00
2023-07-31T01:20:34.233Z,61.17
2023-07-31T01:23:25.846Z,60.69
2023-07-31T01:26:12.376Z,60.92
2023-07-31T01:28:46.505Z,60.92
2023-07-31T01:31:19.298Z,61.48
2023-07-31T01:33:47.078Z,61.62
2023-07-31T01:36:13.505Z,61.76
2023-07-31T01:38:39.918Z,61.82
2023-07-31T01:41:06.400Z,61.37
2023-07-31T01:43:32.883Z,61.52
2023-07-31T01:45:59.367Z,61.64
2023-07-31T01:48:25.866Z,61.79
2023-07-31T01:50:52.308Z,61.88
2023-07-31T01:53:18.731Z,62.04
2023-07-31T01:55:45.142Z,62.33
2023-07-31T01:58:11.533Z,62.44
2023-07-31T02:00:38.431Z,62.42
2023-07-31T02:03:05.017Z,62.02
2023-07-31T02:05:31.495Z,62.52
2023-07-31T02:07:58.028Z,62.24
2023-07-31T02:10:24.428Z,62.13
2023-07-31T02:12:50.956Z,62.74
2023-07-31T02:15:17.453Z,63.06
2023-07-31T02:17:44.006Z,62.54
2023-07-31T02:20:10.996Z,62.77
2023-07-31T02:22:37.472Z,62.78
2023-07-31T02:25:04.101Z,63.00
2023-07-31T02:27:30.637Z,63.41
2023-07-31T02:29:57.086Z,63.25
2023-07-31T02:32:23.530Z,63.19
2023-07-31T02:34:50.059Z,63.50
2023-07-31T02:37:16.511Z,63.45
2023-07-31T02:39:43.008Z,63.78
2023-07-31T02:42:09.480Z,63.94
2023-07-31T02:44:35.889Z,63.79
2023-07-31T02:47:02.619Z,63.93
2023-07-31T02:49:29.070Z,63.90
2023-07-31T02:51:55.495Z,63.92
2023-07-31T02:54:22.743Z,64.17
2023-07-31T02:56:49.336Z,63.92
2023-07-31T02:59:15.831Z,64.06
2023-07-31T03:01:42.276Z,64.19
2023-07-31T03:04:08.710Z,64.10
2023-07-31T03:06:35.124Z,64.05
2023-07-31T03:09:01.716Z,64.82
2023-07-31T03:11:28.174Z,64.69
2023-07-31T03:13:55.218Z,64.68
2023-07-31T03:16:21.805Z,64.73
2023-07-31T03:18:48.284Z,64.89
2023-07-31T03:21:15.412Z,65.03
2023-07-31T03:23:41.997Z,65.00
2023-07-31T03:26:10.191Z,65.42
2023-07-31T03:28:36.652Z,65.77
2023-07-31T03:31:03.288Z,65.77
2023-07-31T03:33:29.786Z,65.76
2023-07-31T03:35:56.268Z,65.65
2023-07-31T03:38:22.728Z,65.94
2023-07-31T03:40:49.308Z,66.00
2023-07-31T03:43:16.553Z,66.20
2023-07-31T03:45:43.281Z,66.18
2023-07-31T03:48:10.028Z,66.02
2023-07-31T03:50:36.528Z,66.21
2023-07-31T03:53:02.968Z,66.36
2023-07-31T03:55:29.434Z,66.25
2023-07-31T03:57:55.884Z,66.54
2023-07-31T04:00:23.430Z,66.42
2023-07-31T04:02:49.926Z,66.50
2023-07-31T04:05:16.437Z,66.51
2023-07-31T04:07:42.979Z,66.24
2023-07-31T04:10:12.981Z,66.37
2023-07-31T04:12:40.018Z,66.21
2023-07-31T04:15:07.157Z,66.65
2023-07-31T04:17:33.592Z,66.55
2023-07-31T04:20:00.000Z,66.79
2023-07-31T04:22:26.668Z,66.70
2023-07-31T04:24:53.102Z,66.68
2023-07-31T04:27:19.484Z,66.88
2023-07-31T04:29:47.924Z,66.68
2023-07-31T04:32:16.612Z,66.77
2023-07-31T04:34:43.560Z,66.88
2023-07-31T04:37:09.953Z,67.14
2023-07-31T04:39:36.384Z,66.58
2023-07-31T04:42:03.462Z,66.72
2023-07-31T04:44:29.808Z,66.72
2023-07-31T04:46:56.287Z,66.72
2023-07-31T04:49:23.140Z,66.56
2023-07-31T04:51:49.538Z,66.73
2023-07-31T04:54:16.146Z,66.87
2023-07-31T04:56:42.604Z,66.49
2023-07-31T04:59:09.195Z,66.58
2023-07-31T05:01:35.902Z,66.46
2023-07-31T05:04:02.422Z,66.42
2023-07-31T05:06:28.927Z,66.45
2023-07-31T05:08:55.368Z,66.29
2023-07-31T05:11:21.771Z,66.23
2023-07-31T05:13:48.229Z,66.34
2023-07-31T05:16:14.728Z,66.21
2023-07-31T05:18:41.134Z,66.14
2023-07-31T05:21:08.195Z,65.96
2023-07-31T05:23:34.621Z,66.00
2023-07-31T05:26:07.820Z,65.52
2023-07-31T05:28:36.170Z,65.29
2023-07-31T05:31:03.825Z,65.49
2023-07-31T05:33:30.498Z,65.19
2023-07-31T05:35:57.013Z,65.24
2023-07-31T05:38:23.452Z,65.43
2023-07-31T05:40:49.980Z,65.33
2023-07-31T05:43:16.516Z,65.41
2023-07-31T05:45:44.056Z,65.10
2023-07-31T05:48:10.524Z,65.14
2023-07-31T05:50:38.228Z,65.02
2023-07-31T05:53:04.655Z,65.50
2023-07-31T05:55:31.131Z,65.15
2023-07-31T05:57:58.991Z,65.25
2023-07-31T06:00:28.520Z,65.18
2023-07-31T06:02:54.985Z,64.86
2023-07-31T06:05:21.677Z,64.88
2023-07-31T06:07:48.147Z,64.88
2023-07-31T06:10:14.757Z,64.56
2023-07-31T06:12:41.183Z,64.92
2023-07-31T06:15:08.037Z,64.73
2023-07-31T06:17:34.533Z,64.54
2023-07-31T06:20:00.991Z,64.69
2023-07-31T06:22:27.462Z,65.17
2023-07-31T06:24:53.927Z,64.89
2023-07-31T06:27:20.403Z,65.38
2023-07-31T06:29:46.843Z,65.85
2023-07-31T06:32:13.417Z,65.86
2023-07-31T06:34:39.908Z,66.02
2023-07-31T06:37:06.575Z,65.96
2023-07-31T06:39:32.937Z,65.89
2023-07-31T06:41:59.420Z,65.95
2023-07-31T06:44:25.856Z,65.97
2023-07-31T06:46:52.286Z,65.39
2023-07-31T06:49:18.740Z,65.65
2023-07-31T06:51:45.335Z,65.62
2023-07-31T06:54:12.335Z,65.33
2023-07-31T06:56:41.107Z,65.41
2023-07-31T06:59:08.072Z,65.45
2023-07-31T07:01:34.618Z,65.20
2023-07-31T07:04:01.252Z,65.30
2023-07-31T07:06:27.998Z,65.22
2023-07-31T07:08:54.426Z,65.33
2023-07-31T07:11:20.828Z,65.36
2023-07-31T07:13:47.709Z,65.35
2023-07-31T07:16:14.258Z,64.72
2023-07-31T07:18:46.732Z,64.95
2023-07-31T07:21:20.697Z,64.79
2023-07-31T07:23:47.131Z,64.74
2023-07-31T07:26:13.575Z,65.15
2023-07-31T07:28:40.131Z,65.48
2023-07-31T07:31:06.716Z,65.37
2023-07-31T07:33:33.193Z,65.36
2023-07-31T07:36:03.039Z,65.37
2023-07-31T07:38:29.535Z,66.09
2023-07-31T07:40:56.034Z,66.02
2023-07-31T07:43:22.508Z,66.10
2023-07-31T07:45:48.926Z,66.36
2023-07-31T07:48:15.706Z,66.40
2023-07-31T07:50:42.136Z,66.61
2023-07-31T07:53:08.569Z,66.94
2023-07-31T07:55:36.425Z,66.82
2023-07-31T07:58:02.999Z,67.24
2023-07-31T08:00:29.577Z,67.31
2023-07-31T08:02:56.159Z,67.20
2023-07-31T08:05:22.639Z,67.43
2023-07-31T08:07:49.055Z,67.57
2023-07-31T08:10:15.454Z,67.82
2023-07-31T08:12:41.853Z,67.84
2023-07-31T08:15:08.867Z,68.04
2023-07-31T08:17:35.611Z,67.96
2023-07-31T08:20:02.102Z,67.65
2023-07-31T08:22:28.536Z,67.84
2023-07-31T08:24:54.961Z,67.00
2023-07-31T08:27:21.385Z,67.04
2023-07-31T08:29:47.826Z,67.25
2023-07-31T08:32:14.259Z,67.14
2023-07-31T08:34:40.899Z,66.89
2023-07-31T08:37:07.349Z,67.32
2023-07-31T08:39:33.724Z,67.54
2023-07-31T08:42:01.202Z,67.57
2023-07-31T08:44:28.236Z,67.50
2023-07-31T08:46:55.824Z,67.45
2023-07-31T08:49:24.135Z,67.38
2023-07-31T08:51:51.874Z,67.72
2023-07-31T08:54:18.431Z,67.46
2023-07-31T08:56:45.485Z,67.79
2023-07-31T08:59:14.222Z,67.67
2023-07-31T09:01:49.376Z,67.30
2023-07-31T09:04:19.709Z,67.44
2023-07-31T09:06:47.020Z,67.33
2023-07-31T09:09:13.632Z,67.49
2023-07-31T09:11:40.648Z,67.50
2023-07-31T09:14:09.923Z,67.42
2023-07-31T09:16:36.550Z,67.32
2023-07-31T09:19:04.364Z,67.21
2023-07-31T09:21:30.906Z,66.93
2023-07-31T09:24:03.857Z,66.58
2023-07-31T09:26:31.565Z,66.67
2023-07-31T09:28:59.202Z,66.87
2023-07-31T09:31:42.957Z,66.61
2023-07-31T09:34:10.826Z,66.93
2023-07-31T09:36:42.595Z,66.85
2023-07-31T09:39:13.274Z,66.43
2023-07-31T09:41:41.318Z,66.47
2023-07-31T09:44:08.100Z,66.36
2023-07-31T09:46:39.366Z,66.21
2023-07-31T09:49:07.048Z,66.39
2023-07-31T09:51:39.110Z,66.40
2023-07-31T09:54:11.575Z,65.95
2023-07-31T09:56:43.965Z,65.83
2023-07-31T09:59:16.666Z,65.71
2023-07-31T10:01:45.029Z,65.74
2023-07-31T10:04:12.446Z,65.87
2023-07-31T10:06:39.861Z,66.00
2023-07-31T10:09:08.530Z,65.93
2023-07-31T10:11:51.306Z,66.18
2023-07-31T10:14:21.632Z,66.18
2023-07-31T10:16:48.442Z,66.51
2023-07-31T10:19:15.173Z,66.31
2023-07-31T10:21:43.931Z,66.41
2023-07-31T10:24:10.534Z,66.25
2023-07-31T10:26:40.072Z,66.09
2023-07-31T10:29:07.825Z,66.11
2023-07-31T10:31:36.686Z,66.45
2023-07-31T10:34:04.218Z,65.34
2023-07-31T10:36:30.701Z,65.66
2023-07-31T10:38:57.523Z,65.58
2023-07-31T10:41:33.417Z,65.19
2023-07-31T10:44:00.594Z,65.00
2023-07-31T10:46:28.913Z,64.63
2023-07-31T10:49:00.771Z,64.54
2023-07-31T10:51:36.549Z,64.26
2023-07-31T10:54:13.825Z,63.98
2023-07-31T10:56:41.123Z,64.38
2023-07-31T10:59:08.779Z,64.57
2023-07-31T11:01:58.467Z,65.02
2023-07-31T11:04:26.545Z,64.99
2023-07-31T11:07:01.381Z,64.82
2023-07-31T11:09:33.289Z,65.10
2023-07-31T11:12:02.809Z,64.94
2023-07-31T11:14:29.236Z,64.91
2023-07-31T11:16:55.807Z,64.98
2023-07-31T11:19:25.925Z,64.92
2023-07-31T11:22:07.405Z,65.35
2023-07-31T11:24:34.861Z,65.24
2023-07-31T11:27:03.056Z,65.23
2023-07-31T11:29:30.089Z,65.64
2023-07-31T11:31:56.536Z,65.46
2023-07-31T11:34:22.974Z,65.00
2023-07-31T11:37:00.050Z,64.58
2023-07-31T11:39:27.795Z,64.53
2023-07-31T11:42:00.005Z,64.42
2023-07-31T11:44:28.166Z,64.38
2023-07-31T11:46:58.263Z,64.52
2023-07-31T11:49:25.025Z,64.21
2023-07-31T11:51:51.657Z,64.26
2023-07-31T11:54:18.636Z,64.70
2023-07-31T11:56:45.565Z,64.24
2023-07-31T11:59:13.752Z,64.57
2023-07-31T12:01:40.515Z,64.42
2023-07-31T12:04:08.649Z,64.44
2023-07-31T12:06:36.333Z,64.16
2023-07-31T12:09:06.591Z,64.17
2023-07-31T12:11:49.993Z,64.10
2023-07-31T12:14:22.267Z,63.83
2023-07-31T12:16:49.054Z,63.89
2023-07-31T12:19:15.462Z,64.22
2023-07-31T12:21:41.907Z,64.08
2023-07-31T12:24:08.360Z,64.03
2023-07-31T12:26:35.703Z,63.97
2023-07-31T12:29:02.321Z,64.18
2023-07-31T12:31:30.274Z,63.97
2023-07-31T12:33:57.135Z,64.12
2023-07-31T12:36:25.247Z,64.19
2023-07-31T12:38:53.182Z,63.69
2023-07-31T12:41:19.920Z,63.77
2023-07-31T12:43:46.932Z,63.90
2023-07-31T12:46:14.000Z,64.14
2023-07-31T12:48:41.423Z,63.77
2023-07-31T12:51:08.557Z,64.28
2023-07-31T12:53:35.592Z,63.95
2023-07-31T12:56:03.716Z,64.04
2023-07-31T12:58:30.128Z,63.90
2023-07-31T13:00:56.560Z,64.04
2023-07-31T13:03:23.080Z,63.70
2023-07-31T13:05:49.703Z,63.84
2023-07-31T13:08:17.093Z,63.00
2023-07-31T13:10:43.748Z,63.07
2023-07-31T13:13:11.322Z,63.32
2023-07-31T13:15:37.920Z,62.91
2023-07-31T13:18:04.450Z,62.73
2023-07-31T13:20:31.122Z,63.00
2023-07-31T13:22:57.571Z,62.90
2023-07-31T13:25:23.964Z,62.69
2023-07-31T13:27:50.376Z,62.64
2023-07-31T13:30:16.796Z,62.19
2023-07-31T13:32:43.268Z,62.19
2023-07-31T13:35:10.786Z,61.77
2023-07-31T13:37:37.156Z,61.94
2023-07-31T13:40:05.975Z,61.46
2023-07-31T13:42:33.764Z,61.83
2023-07-31T13:45:00.234Z,61.69
2023-07-31T13:47:26.745Z,62.08
2023-07-31T13:49:53.253Z,62.32
2023-07-31T13:52:19.678Z,61.75
2023-07-31T13:54:46.105Z,62.45
2023-07-31T13:57:12.497Z,61.86
2023-07-31T13:59:38.877Z,62.29
2023-07-31T14:02:05.505Z,63.02
2023-07-31T14:04:31.945Z,63.40
2023-07-31T14:06:58.429Z,64.09
2023-07-31T14:09:25.100Z,63.72
2023-07-31T14:11:51.516Z,63.32
2023-07-31T14:14:19.060Z,62.50
2023-07-31T14:16:45.578Z,61.92
2023-07-31T14:19:12.290Z,61.68
2023-07-31T14:21:38.854Z,61.30
2023-07-31T14:24:05.573Z,61.02
2023-07-31T14:26:32.182Z,60.54
2023-07-31T14:28:58.682Z,60.43
2023-07-31T14:31:25.205Z,59.77
2023-07-31T14:33:51.610Z,60.09
2023-07-31T14:36:17.986Z,59.23
2023-07-31T14:38:44.381Z,59.41
2023-07-31T14:41:10.784Z,59.41
2023-07-31T14:43:37.289Z,59.52
2023-07-31T14:46:03.879Z,59.09
2023-07-31T14:48:30.332Z,59.50
2023-07-31T14:50:56.953Z,59.25
2023-07-31T14:53:23.409Z,58.79
2023-07-31T14:55:49.949Z,58.69
2023-07-31T14:58:18.060Z,58.37
2023-07-31T15:00:44.961Z,58.26
2023-07-31T15:03:11.443Z,58.27
2023-07-31T15:05:37.910Z,58.16
2023-07-31T15:08:04.561Z,58.05
2023-07-31T15:10:31.094Z,58.13
2023-07-31T15:12:57.553Z,57.57
2023-07-31T15:15:24.785Z,57.87
2023-07-31T15:17:51.324Z,57.47
2023-07-31T15:20:17.801Z,57.45
2023-07-31T15:22:44.330Z,57.98
2023-07-31T15:25:10.739Z,58.25
2023-07-31T15:27:37.131Z,58.29
2023-07-31T15:30:06.537Z,58.78
2023-07-31T15:32:33.646Z,59.37
2023-07-31T15:35:00.049Z,59.42
2023-07-31T15:37:26.484Z,59.74
2023-07-31T15:39:52.886Z,59.58
2023-07-31T15:42:25.205Z,60.49
2023-07-31T15:45:10.970Z,60.08
2023-07-31T15:47:42.699Z,60.55
2023-07-31T15:50:10.048Z,60.98
2023-07-31T15:52:44.113Z,61.51
2023-07-31T15:55:15.100Z,61.39
2023-07-31T15:57:49.435Z,61.99
2023-07-31T16:00:16.405Z,61.77
2023-07-31T16:03:01.315Z,62.51
2023-07-31T16:05:33.659Z,62.11
2023-07-31T16:08:03.825Z,62.57
2023-07-31T16:10:53.527Z,62.65
2023-07-31T16:13:20.342Z,62.69
2023-07-31T16:15:53.716Z,62.98
2023-07-31T16:18:21.426Z,62.93
2023-07-31T16:20:56.719Z,63.16
2023-07-31T16:23:26.220Z,63.22
2023-07-31T16:26:00.881Z,63.26
2023-07-31T16:28:30.348Z,63.74
2023-07-31T16:31:02.817Z,63.82
2023-07-31T16:33:34.514Z,64.00
2023-07-31T16:36:01.423Z,64.03
2023-07-31T16:38:30.332Z,63.67
2023-07-31T16:41:04.764Z,63.92
2023-07-31T16:43:38.967Z,63.99
2023-07-31T16:46:06.143Z,64.52
2023-07-31T16:48:33.259Z,64.43
2023-07-31T16:51:05.632Z,64.78
2023-07-31T16:53:35.959Z,65.04
2023-07-31T16:56:08.988Z,64.98
2023-07-31T16:58:39.267Z,65.15
2023-07-31T17:01:18.305Z,65.20
2023-07-31T17:03:45.602Z,65.17
2023-07-31T17:06:12.884Z,65.45
2023-07-31T17:08:41.902Z,65.41
2023-07-31T17:11:12.063Z,65.35
2023-07-31T17:13:41.466Z,65.57
2023-07-31T17:16:08.842Z,65.63
2023-07-31T17:18:38.698Z,65.86
2023-07-31T17:21:05.746Z,65.81
2023-07-31T17:23:38.637Z,65.91
2023-07-31T17:26:13.447Z,65.60
2023-07-31T17:28:43.893Z,65.75
2023-07-31T17:31:18.744Z,65.90
2023-07-31T17:33:47.747Z,65.85
2023-07-31T17:36:14.862Z,65.89
2023-07-31T17:38:44.035Z,65.71
2023-07-31T17:41:13.490Z,65.85
2023-07-31T17:43:40.483Z,66.08
2023-07-31T17:46:11.899Z,65.71
2023-07-31T17:48:43.242Z,66.11
2023-07-31T17:51:16.229Z,66.16
2023-07-31T17:53:44.301Z,66.05
2023-07-31T17:56:11.350Z,66.23
2023-07-31T17:58:41.574Z,66.30
2023-07-31T18:01:14.998Z,66.13
2023-07-31T18:03:47.157Z,66.16
2023-07-31T18:06:14.186Z,66.07
2023-07-31T18:08:43.795Z,66.28
2023-07-31T18:11:14.917Z,66.27
2023-07-31T18:13:44.587Z,66.33
2023-07-31T18:16:30.106Z,66.47
2023-07-31T18:19:03.265Z,66.29
2023-07-31T18:21:42.816Z,66.81
2023-07-31T18:24:15.746Z,66.72
2023-07-31T18:26:43.137Z,66.79
2023-07-31T18:29:19.506Z,66.70
2023-07-31T18:31:57.521Z,66.77
2023-07-31T18:34:24.554Z,67.23
2023-07-31T18:37:01.582Z,66.74
2023-07-31T18:39:32.971Z,66.85
2023-07-31T18:42:19.043Z,66.75
2023-07-31T18:44:56.028Z,66.66
2023-07-31T18:47:31.982Z,66.87
2023-07-31T18:50:03.445Z,66.81
2023-07-31T18:52:33.140Z,66.96
2023-07-31T18:55:00.103Z,67.13
2023-07-31T18:57:38.210Z,67.46
2023-07-31T19:00:09.750Z,67.22
2023-07-31T19:02:36.735Z,67.49
2023-07-31T19:05:07.357Z,67.81
2023-07-31T19:08:05.301Z,67.50
2023-07-31T19:10:39.154Z,67.43
2023-07-31T19:13:14.287Z,67.71
2023-07-31T19:15:54.718Z,67.79
2023-07-31T19:18:21.815Z,67.75
2023-07-31T19:20:51.000Z,67.94
2023-07-31T19:23:24.288Z,68.05
2023-07-31T19:25:54.727Z,67.89
2023-07-31T19:28:26.869Z,68.33
2023-07-31T19:31:05.708Z,68.21
2023-07-31T19:33:56.476Z,68.09
2023-07-31T19:36:30.625Z,68.09
2023-07-31T19:39:06.373Z,68.44
2023-07-31T19:41:46.120Z,68.37
2023-07-31T19:44:19.598Z,68.49
2023-07-31T19:46:57.416Z,68.36
2023-07-31T19:49:33.812Z,68.43
2023-07-31T19:52:04.930Z,68.63
2023-07-31T19:54:38.485Z,68.43
2023-07-31T19:57:52.070Z,68.69
2023-07-31T20:00:26.589Z,68.40
2023-07-31T20:03:13.508Z,68.72
2023-07-31T20:05:44.255Z,68.94
2023-07-31T20:11:26.934Z,69.03
2023-07-31T20:14:05.241Z,68.94
2023-07-31T20:16:40.567Z,69.28
2023-07-31T20:19:19.346Z,69.14
2023-07-31T20:21:57.184Z,69.22
2023-07-31T20:24:30.340Z,69.12
2023-07-31T20:26:57.804Z,69.26
2023-07-31T20:29:30.488Z,69.28
2023-07-31T20:32:16.470Z,69.18
2023-07-31T20:34:58.582Z,69.49
2023-07-31T20:37:42.728Z,69.16
2023-07-31T20:40:18.582Z,69.34
2023-07-31T20:42:57.221Z,69.13
2023-07-31T20:45:28.171Z,69.08
2023-07-31T20:48:00.830Z,69.26
2023-07-31T20:50:39.238Z,69.34
2023-07-31T20:53:12.364Z,69.61
2023-07-31T20:55:47.657Z,69.73
2023-07-31T20:58:19.110Z,69.67
2023-07-31T21:00:45.618Z,69.66
2023-07-31T21:03:12.598Z,69.62
2023-07-31T21:05:39.294Z,69.50
2023-07-31T21:08:05.785Z,69.40
2023-07-31T21:10:33.414Z,69.54
2023-07-31T21:12:59.812Z,69.38
2023-07-31T21:15:27.413Z,69.47
2023-07-31T21:17:53.964Z,69.43
2023-07-31T21:20:20.552Z,69.58
2023-07-31T21:22:47.211Z,69.48
2023-07-31T21:25:13.699Z,69.51
2023-07-31T21:27:40.100Z,69.34
2023-07-31T21:30:07.252Z,68.98
2023-07-31T21:32:33.721Z,68.85
2023-07-31T21:35:00.229Z,68.69
2023-07-31T21:37:26.679Z,68.70
2023-07-31T21:39:53.184Z,68.75
2023-07-31T21:42:19.730Z,68.80
2023-07-31T21:44:46.582Z,68.89
2023-07-31T21:47:13.142Z,68.66
2023-07-31T21:49:39.537Z,68.76
2023-07-31T21:52:06.246Z,68.60
2023-07-31T21:54:33.905Z,68.43
2023-07-31T21:57:00.495Z,68.46
2023-07-31T21:59:26.910Z,68.52
2023-07-31T22:01:53.362Z,68.34
2023-07-31T22:04:21.582Z,68.61
2023-07-31T22:06:48.331Z,68.88
2023-07-31T22:09:14.698Z,68.47
2023-07-31T22:11:41.134Z,68.65
2023-07-31T22:14:07.571Z,68.49
2023-07-31T22:16:36.026Z,68.59
2023-07-31T22:19:02.547Z,69.18
2023-07-31T22:21:29.083Z,68.72
2023-07-31T22:23:55.479Z,68.55
2023-07-31T22:26:21.889Z,68.58
2023-07-31T22:28:48.440Z,68.91
2023-07-31T22:31:14.939Z,68.40
2023-07-31T22:33:41.370Z,68.58
2023-07-31T22:36:07.883Z,68.64
2023-07-31T22:38:35.735Z,68.50
2023-07-31T22:41:02.680Z,68.47
2023-07-31T22:43:29.182Z,69.04
2023-07-31T22:45:55.866Z,68.48
2023-07-31T22:48:22.305Z,68.46
2023-07-31T22:50:48.789Z,68.19
2023-07-31T22:53:15.240Z,68.57
2023-07-31T22:55:41.698Z,68.75
2023-07-31T22:58:08.243Z,68.65
2023-07-31T23:00:34.697Z,68.72
2023-07-31T23:03:01.204Z,69.03
2023-07-31T23:05:27.762Z,68.90
2023-07-31T23:07:54.243Z,68.94
2023-07-31T23:10:20.697Z,69.09
2023-07-31T23:12:47.105Z,69.11
2023-07-31T23:15:13.864Z,69.22
2023-07-31T23:17:40.305Z,69.42
2023-07-31T23:20:07.332Z,69.24
2023-07-31T23:22:33.784Z,69.27
2023-07-31T23:25:00.131Z,69.35
2023-07-31T23:27:26.577Z,69.79
2023-07-31T23:29:53.198Z,69.21
2023-07-31T23:32:20.491Z,69.21
2023-07-31T23:34:46.951Z,69.03
2023-07-31T23:37:13.370Z,69.34
2023-07-31T23:39:39.929Z,69.35
2023-07-31T23:42:06.367Z,69.19
2023-07-31T23:44:35.220Z,69.04
2023-07-31T23:47:01.751Z,69.25
2023-07-31T23:49:28.185Z,69.63
2023-07-31T23:51:55.106Z,69.41
2023-07-31T23:54:21.608Z,69.08
2023-07-31T23:56:48.113Z,69.54
2023-07-31T23:59:14.605Z,69.76
